createdAt,value
2018-06-04T00:00:30.359Z,15.80
2018-06-04T00:03:00.327Z,16.00
2018-06-04T00:05:29.272Z,15.50
2018-06-04T00:07:58.447Z,15.10
2018-06-04T00:10:27.387Z,15.50
2018-06-04T00:12:56.351Z,15.13
2018-06-04T00:15:25.412Z,14.57
2018-06-04T00:17:54.333Z,15.13
2018-06-04T00:20:23.836Z,14.60
2018-06-04T00:22:52.840Z,15.47
2018-06-04T00:25:22.448Z,15.57
2018-06-04T00:27:51.373Z,15.30
2018-06-04T00:30:21.319Z,15.60
2018-06-04T00:32:50.363Z,15.10
2018-06-04T00:35:19.276Z,14.60
2018-06-04T00:37:48.324Z,15.17
2018-06-04T00:40:17.332Z,15.43
2018-06-04T00:42:46.386Z,14.73
2018-06-04T00:45:15.584Z,15.30
2018-06-04T00:47:45.293Z,16.17
2018-06-04T00:50:14.330Z,15.37
2018-06-04T00:52:43.360Z,15.57
2018-06-04T00:55:12.344Z,14.03
2018-06-04T00:57:41.300Z,15.87
2018-06-04T01:00:10.988Z,15.77
2018-06-04T01:02:39.995Z,14.40
2018-06-04T01:05:08.951Z,14.97
2018-06-04T01:07:38.047Z,15.23
2018-06-04T01:10:07.118Z,15.80
2018-06-04T01:12:36.077Z,14.80
2018-06-04T01:15:05.241Z,14.87
2018-06-04T01:17:34.182Z,15.73
2018-06-04T01:20:03.116Z,14.63
2018-06-04T01:22:32.228Z,15.80
2018-06-04T01:25:01.217Z,13.43
2018-06-04T01:27:30.296Z,13.00
2018-06-04T01:29:59.420Z,13.50
2018-06-04T01:32:28.369Z,13.30
2018-06-04T01:34:57.406Z,12.33
2018-06-04T01:37:26.448Z,11.20
2018-06-04T01:39:55.450Z,11.50
2018-06-04T01:42:25.411Z,11.20
2018-06-04T01:44:54.391Z,11.43
2018-06-04T01:47:23.329Z,11.63
2018-06-04T01:49:52.265Z,11.10
2018-06-04T01:52:21.383Z,10.33
2018-06-04T01:54:50.820Z,10.00
2018-06-04T01:57:20.514Z,9.60
2018-06-04T01:59:49.809Z,9.50
2018-06-04T02:02:18.746Z,9.60
2018-06-04T02:04:48.786Z,9.57
2018-06-04T02:07:18.212Z,9.50
2018-06-04T02:09:47.134Z,9.33
2018-06-04T02:12:17.194Z,9.37
2018-06-04T02:14:46.648Z,9.70
2018-06-04T02:17:15.661Z,9.97
2018-06-04T02:19:45.328Z,10.00
2018-06-04T02:22:15.136Z,10.27
2018-06-04T02:24:44.539Z,10.03
2018-06-04T02:27:14.088Z,10.27
2018-06-04T02:29:43.113Z,10.50
2018-06-04T02:32:13.010Z,10.20
2018-06-04T02:34:42.673Z,10.70
2018-06-04T02:37:12.229Z,10.03
2018-06-04T02:39:41.263Z,9.93
2018-06-04T02:42:10.408Z,10.23
2018-06-04T02:44:39.365Z,9.43
2018-06-04T02:47:08.322Z,9.10
2018-06-04T02:49:37.384Z,9.57
2018-06-04T02:52:06.446Z,8.30
2018-06-04T02:54:36.125Z,8.80
2018-06-04T02:57:05.305Z,8.57
2018-06-04T02:59:34.592Z,8.63
2018-06-04T03:02:03.561Z,8.87
2018-06-04T03:04:33.185Z,8.63
2018-06-04T03:07:02.729Z,8.47
2018-06-04T03:09:31.689Z,8.40
2018-06-04T03:12:00.721Z,8.53
2018-06-04T03:14:31.529Z,8.70
2018-06-04T03:17:00.567Z,9.60
2018-06-04T03:19:29.582Z,9.73
2018-06-04T03:21:58.790Z,9.73
2018-06-04T03:24:27.836Z,10.10
2018-06-04T03:26:56.814Z,9.97
2018-06-04T03:29:26.534Z,8.83
2018-06-04T03:31:57.056Z,9.40
2018-06-04T03:34:26.071Z,9.77
2018-06-04T03:36:55.023Z,9.10
2018-06-04T03:39:24.115Z,9.10
2018-06-04T03:41:53.114Z,9.63
2018-06-04T03:44:22.149Z,9.97
2018-06-04T03:46:51.207Z,10.13
2018-06-04T03:49:20.179Z,10.07
2018-06-04T03:51:49.248Z,10.20
2018-06-04T03:54:18.376Z,10.33
2018-06-04T03:56:47.417Z,9.70
2018-06-04T03:59:16.391Z,10.33
2018-06-04T04:01:45.488Z,10.97
2018-06-04T04:04:14.490Z,10.70
2018-06-04T04:06:43.421Z,11.67
2018-06-04T04:09:12.688Z,12.87
2018-06-04T04:11:41.768Z,15.70
2018-06-04T04:14:10.769Z,14.67
2018-06-04T04:16:40.504Z,14.73
2018-06-04T04:19:09.420Z,14.77
2018-06-04T04:21:38.335Z,13.87
2018-06-04T04:24:07.300Z,14.63
2018-06-04T04:26:40.252Z,13.60
2018-06-04T04:29:09.814Z,14.67
2018-06-04T04:31:39.227Z,13.53
2018-06-04T04:34:08.222Z,12.37
2018-06-04T04:36:37.228Z,14.77
2018-06-04T04:39:08.989Z,17.30
2018-06-04T04:41:38.328Z,16.00
2018-06-04T04:44:07.599Z,17.33
2018-06-04T04:46:36.574Z,17.67
2018-06-04T04:49:05.742Z,17.13
2018-06-04T04:51:34.705Z,18.53
2018-06-04T04:54:03.715Z,18.50
2018-06-04T04:56:32.721Z,18.10
2018-06-04T04:59:01.713Z,22.00
2018-06-04T05:01:30.651Z,23.63
2018-06-04T05:04:00.504Z,25.90
2018-06-04T05:06:29.500Z,23.47
2018-06-04T05:08:59.407Z,24.30
2018-06-04T05:11:28.541Z,20.10
2018-06-04T05:13:57.700Z,19.07
2018-06-04T05:16:28.397Z,16.30
2018-06-04T05:18:57.587Z,16.90
2018-06-04T05:21:27.038Z,15.00
2018-06-04T05:23:55.954Z,14.53
2018-06-04T05:26:25.377Z,14.63
2018-06-04T05:28:54.429Z,15.50
2018-06-04T05:31:23.425Z,15.93
2018-06-04T05:33:53.077Z,15.40
2018-06-04T05:36:22.083Z,17.00
2018-06-04T05:38:51.083Z,16.90
2018-06-04T05:41:20.385Z,17.40
2018-06-04T05:43:49.376Z,16.93
2018-06-04T05:46:18.287Z,17.03
2018-06-04T05:48:48.134Z,17.60
2018-06-04T05:51:17.120Z,16.97
2018-06-04T05:53:46.059Z,15.90
2018-06-04T05:56:15.138Z,14.40
2018-06-04T05:58:44.290Z,17.63
2018-06-04T06:01:13.227Z,16.07
2018-06-04T06:03:42.426Z,15.87
2018-06-04T06:06:11.437Z,14.27
2018-06-04T06:08:40.568Z,12.90
2018-06-04T06:11:09.557Z,14.07
2018-06-04T06:13:38.523Z,14.07
2018-06-04T06:16:07.565Z,14.50
2018-06-04T06:18:37.368Z,14.53
2018-06-04T06:21:06.489Z,14.13
2018-06-04T06:23:36.255Z,12.50
2018-06-04T06:26:05.588Z,13.30
2018-06-04T06:28:35.398Z,13.35
2018-06-04T06:31:04.335Z,15.27
2018-06-04T06:33:33.368Z,17.67
2018-06-04T06:36:02.304Z,17.90
2018-06-04T06:38:31.355Z,16.32
2018-06-04T06:41:00.424Z,15.18
2018-06-04T06:43:29.374Z,15.32
2018-06-04T06:45:59.104Z,21.77
2018-06-04T06:48:28.422Z,13.50
2018-06-04T06:50:57.374Z,15.18
2018-06-04T06:53:27.077Z,13.85
2018-06-04T06:55:56.887Z,13.38
2018-06-04T06:58:26.751Z,13.15
2018-06-04T07:00:55.731Z,10.13
2018-06-04T07:03:25.220Z,10.78
2018-06-04T07:05:54.241Z,9.50
2018-06-04T07:08:23.294Z,10.38
2018-06-04T07:10:52.352Z,10.28
2018-06-04T07:13:21.247Z,9.18
2018-06-04T07:15:50.192Z,9.73
2018-06-04T07:18:19.206Z,9.55
2018-06-04T07:20:49.015Z,9.03
2018-06-04T07:23:18.052Z,9.25
2018-06-04T07:25:47.636Z,9.15
2018-06-04T07:28:16.601Z,9.93
2018-06-04T07:30:45.913Z,11.05
2018-06-04T07:33:14.994Z,9.68
2018-06-04T07:35:43.933Z,9.48
2018-06-04T07:38:12.835Z,10.05
2018-06-04T07:40:43.103Z,10.28
2018-06-04T07:43:12.061Z,10.03
2018-06-04T07:45:40.972Z,9.95
2018-06-04T07:48:10.035Z,10.15
2018-06-04T07:50:38.896Z,9.95
2018-06-04T07:53:07.764Z,11.00
2018-06-04T07:55:36.749Z,7.37
2018-06-04T07:58:05.685Z,7.10
2018-06-04T08:00:35.396Z,6.92
2018-06-04T08:03:04.564Z,6.30
2018-06-04T08:05:34.142Z,6.85
2018-06-04T08:08:03.068Z,6.40
2018-06-04T08:10:33.054Z,7.00
2018-06-04T08:13:02.051Z,6.25
2018-06-04T08:15:31.009Z,6.80
2018-06-04T08:18:00.122Z,7.87
2018-06-04T08:20:29.044Z,6.35
2018-06-04T08:22:57.971Z,6.83
2018-06-04T08:25:27.153Z,6.58
2018-06-04T08:27:56.072Z,5.40
2018-06-04T08:30:25.088Z,5.90
2018-06-04T08:32:54.169Z,6.50
2018-06-04T08:35:23.100Z,5.55
2018-06-04T08:37:52.173Z,5.75
2018-06-04T08:40:21.247Z,5.85
2018-06-04T08:42:50.203Z,5.37
2018-06-04T08:45:19.147Z,5.30
2018-06-04T08:47:48.193Z,5.17
2018-06-04T08:50:17.149Z,13.93
2018-06-04T08:52:46.473Z,7.42
2018-06-04T08:55:16.735Z,8.35
2018-06-04T08:57:45.716Z,5.62
2018-06-04T09:00:14.760Z,5.40
2018-06-04T09:02:44.476Z,5.12
2018-06-04T09:05:13.386Z,4.95
2018-06-04T09:07:43.059Z,4.95
2018-06-04T09:10:12.131Z,5.95
2018-06-04T09:12:41.082Z,5.80
2018-06-04T09:15:10.067Z,6.08
2018-06-04T09:17:40.295Z,6.28
2018-06-04T09:20:09.315Z,6.22
2018-06-04T09:22:38.298Z,7.78
2018-06-04T09:25:07.301Z,10.58
2018-06-04T09:27:36.391Z,13.65
2018-06-04T09:30:06.590Z,7.03
2018-06-04T09:32:35.565Z,6.55
2018-06-04T09:35:04.563Z,6.53
2018-06-04T09:37:33.738Z,6.55
2018-06-04T09:40:02.807Z,6.62
2018-06-04T09:42:32.340Z,6.17
2018-06-04T09:45:01.341Z,7.42
2018-06-04T09:47:30.930Z,6.67
2018-06-04T09:50:00.521Z,6.60
2018-06-04T09:52:29.485Z,6.20
2018-06-04T09:54:58.434Z,5.35
2018-06-04T09:57:27.598Z,5.12
2018-06-04T09:59:56.612Z,4.92
2018-06-04T10:02:25.646Z,5.70
2018-06-04T10:04:54.641Z,7.33
2018-06-04T10:07:23.597Z,8.28
2018-06-04T10:09:52.514Z,8.60
2018-06-04T10:12:22.086Z,6.75
2018-06-04T10:14:51.078Z,7.92
2018-06-04T10:17:20.093Z,7.80
2018-06-04T10:19:49.111Z,8.23
2018-06-04T10:22:18.137Z,8.50
2018-06-04T10:24:47.119Z,8.45
2018-06-04T10:27:16.203Z,8.50
2018-06-04T10:29:45.254Z,7.47
2018-06-04T10:32:14.331Z,6.60
2018-06-04T10:34:54.112Z,6.78
2018-06-04T10:37:23.726Z,7.00
2018-06-04T10:39:54.644Z,7.05
2018-06-04T10:42:24.962Z,7.83
2018-06-04T10:44:53.982Z,8.20
2018-06-04T10:47:23.480Z,7.47
2018-06-04T10:49:55.633Z,24.05
2018-06-04T10:52:30.463Z,19.87
2018-06-04T10:54:59.486Z,10.00
2018-06-04T10:57:28.474Z,8.50
2018-06-04T11:00:08.452Z,8.15
2018-06-04T11:02:37.881Z,7.70
2018-06-04T11:05:06.868Z,8.03
2018-06-04T11:07:35.879Z,7.87
2018-06-04T11:10:04.928Z,8.53
2018-06-04T11:12:34.549Z,8.70
2018-06-04T11:15:03.735Z,8.63
2018-06-04T11:17:32.745Z,11.08
2018-06-04T11:20:02.374Z,10.00
2018-06-04T11:22:33.197Z,7.67
2018-06-04T11:25:05.392Z,7.85
2018-06-04T11:27:37.945Z,7.97
2018-06-04T11:30:07.182Z,7.33
2018-06-04T11:32:36.973Z,6.37
2018-06-04T11:35:05.997Z,6.80
2018-06-04T11:37:35.006Z,7.08
2018-06-04T11:40:04.255Z,5.97
2018-06-04T11:42:33.193Z,6.45
2018-06-04T11:45:02.155Z,6.40
2018-06-04T11:47:31.296Z,10.60
2018-06-04T11:50:00.219Z,11.43
2018-06-04T11:52:29.233Z,7.85
2018-06-04T11:54:58.280Z,5.83
2018-06-04T11:57:27.289Z,5.12
2018-06-04T11:59:56.278Z,5.15
2018-06-04T12:02:25.311Z,4.45
2018-06-04T12:04:54.303Z,4.30
2018-06-04T12:07:23.703Z,4.50
2018-06-04T12:09:52.678Z,4.05
2018-06-04T12:12:21.663Z,4.08
2018-06-04T12:14:50.693Z,13.15
2018-06-04T12:17:19.675Z,4.92
2018-06-04T12:19:49.435Z,5.83
2018-06-04T12:22:18.403Z,4.40
2018-06-04T12:24:47.426Z,4.83
2018-06-04T12:27:16.397Z,5.10
2018-06-04T12:29:45.952Z,4.90
2018-06-04T12:32:15.129Z,4.85
2018-06-04T12:34:44.636Z,4.83
2018-06-04T12:37:13.591Z,11.22
2018-06-04T12:39:42.725Z,24.60
2018-06-04T12:42:11.760Z,6.85
2018-06-04T12:44:41.541Z,6.37
2018-06-04T12:47:10.548Z,6.30
2018-06-04T12:49:42.776Z,6.20
2018-06-04T12:52:12.932Z,6.60
2018-06-04T12:54:41.945Z,5.92
2018-06-04T12:57:11.005Z,4.80
2018-06-04T12:59:41.065Z,4.22
2018-06-04T13:02:10.833Z,5.17
2018-06-04T13:04:39.877Z,4.60
2018-06-04T13:07:08.941Z,4.90
2018-06-04T13:09:38.050Z,5.45
2018-06-04T13:12:07.049Z,4.62
2018-06-04T13:14:36.098Z,5.10
2018-06-04T13:17:05.180Z,4.95
2018-06-04T13:19:34.217Z,5.33
2018-06-04T13:22:03.309Z,4.70
2018-06-04T13:24:32.288Z,5.30
2018-06-04T13:27:01.247Z,4.65
2018-06-04T13:29:30.518Z,5.80
2018-06-04T13:31:59.527Z,5.72
2018-06-04T13:34:28.662Z,5.50
2018-06-04T13:36:57.884Z,4.60
2018-06-04T13:39:27.014Z,5.20
2018-06-04T13:41:56.072Z,10.70
2018-06-04T13:44:25.182Z,5.12
2018-06-04T13:46:54.219Z,6.22
2018-06-04T13:49:24.271Z,5.15
2018-06-04T13:51:53.308Z,9.38
2018-06-04T13:54:22.327Z,6.78
2018-06-04T13:56:51.257Z,7.28
2018-06-04T13:59:20.461Z,7.80
2018-06-04T14:01:49.490Z,8.13
2018-06-04T14:04:18.531Z,8.08
2018-06-04T14:06:47.567Z,9.30
2018-06-04T14:09:16.732Z,9.18
2018-06-04T14:11:45.631Z,8.38
2018-06-04T14:14:14.710Z,9.58
2018-06-04T14:16:43.684Z,8.95
2018-06-04T14:19:12.696Z,8.00
2018-06-04T14:21:41.875Z,7.90
2018-06-04T14:24:10.857Z,8.20
2018-06-04T14:26:39.813Z,6.90
2018-06-04T14:29:08.900Z,7.40
2018-06-04T14:31:37.896Z,7.37
2018-06-04T14:34:06.857Z,7.43
2018-06-04T14:36:36.064Z,7.83
2018-06-04T14:39:08.465Z,7.78
2018-06-04T14:41:38.796Z,10.38
2018-06-04T14:44:08.747Z,6.75
2018-06-04T14:46:37.690Z,7.95
2018-06-04T14:49:06.795Z,7.40
2018-06-04T14:51:35.818Z,7.30
2018-06-04T14:54:04.849Z,6.62
2018-06-04T14:56:33.962Z,6.90
2018-06-04T14:59:02.986Z,7.15
2018-06-04T15:01:32.039Z,21.95
2018-06-04T15:04:01.128Z,12.82
2018-06-04T15:06:30.286Z,11.22
2018-06-04T15:09:00.006Z,15.45
2018-06-04T15:11:29.072Z,7.65
2018-06-04T15:13:58.097Z,7.95
2018-06-04T15:16:27.103Z,7.22
2018-06-04T15:18:56.337Z,6.90
2018-06-04T15:21:25.281Z,6.50
2018-06-04T15:23:54.383Z,7.72
2018-06-04T15:26:23.461Z,7.50
2018-06-04T15:28:52.395Z,7.22
2018-06-04T15:31:22.107Z,7.15
2018-06-04T15:33:51.238Z,7.92
2018-06-04T15:36:20.260Z,8.28
2018-06-04T15:38:49.346Z,8.85
2018-06-04T15:41:18.532Z,8.85
2018-06-04T15:43:47.641Z,9.13
2018-06-04T15:46:16.685Z,8.95
2018-06-04T15:48:47.503Z,8.05
2018-06-04T15:51:17.823Z,8.20
2018-06-04T15:53:46.789Z,6.20
2018-06-04T15:56:15.859Z,6.42
2018-06-04T15:58:44.834Z,6.50
2018-06-04T16:01:14.728Z,5.60
2018-06-04T16:03:43.766Z,5.58
2018-06-04T16:06:13.827Z,6.40
2018-06-04T16:08:42.827Z,6.17
2018-06-04T16:11:11.920Z,5.65
2018-06-04T16:13:40.909Z,6.03
2018-06-04T16:16:09.905Z,5.67
2018-06-04T16:18:39.512Z,5.75
2018-06-04T16:21:08.699Z,6.15
2018-06-04T16:23:39.120Z,7.70
2018-06-04T16:26:08.236Z,7.00
2018-06-04T16:28:37.428Z,5.83
2018-06-04T16:31:06.431Z,6.25
2018-06-04T16:33:35.496Z,6.20
2018-06-04T16:36:04.577Z,5.50
2018-06-04T16:38:33.579Z,5.72
2018-06-04T16:41:02.689Z,6.08
2018-06-04T16:43:31.764Z,5.47
2018-06-04T16:46:00.799Z,5.70
2018-06-04T16:48:29.851Z,5.55
2018-06-04T16:50:58.863Z,5.70
2018-06-04T16:53:28.054Z,5.75
2018-06-04T16:55:57.766Z,5.92
2018-06-04T16:58:27.594Z,6.10
2018-06-04T17:00:56.577Z,5.72
2018-06-04T17:03:25.586Z,6.00
2018-06-04T17:05:54.642Z,5.20
2018-06-04T17:08:23.732Z,6.28
2018-06-04T17:10:52.687Z,7.28
2018-06-04T17:13:21.743Z,6.28
2018-06-04T17:15:50.828Z,5.42
2018-06-04T17:18:20.487Z,4.63
2018-06-04T17:20:50.450Z,4.83
2018-06-04T17:23:19.681Z,3.70
2018-06-04T17:25:48.984Z,3.33
2018-06-04T17:28:18.025Z,3.53
2018-06-04T17:30:47.009Z,3.73
2018-06-04T17:33:15.947Z,3.40
2018-06-04T17:35:45.920Z,3.70
2018-06-04T17:38:14.896Z,3.70
2018-06-04T17:40:43.845Z,5.37
2018-06-04T17:43:13.047Z,5.90
2018-06-04T17:45:41.975Z,6.10
2018-06-04T17:48:10.994Z,4.10
2018-06-04T17:50:40.077Z,3.60
2018-06-04T17:53:09.690Z,3.13
2018-06-04T17:55:38.741Z,3.43
2018-06-04T17:58:07.861Z,3.50
2018-06-04T18:00:36.910Z,3.57
2018-06-04T18:03:06.539Z,3.20
2018-06-04T18:05:35.609Z,3.80
2018-06-04T18:08:04.599Z,4.03
2018-06-04T18:10:33.618Z,8.23
2018-06-04T18:13:03.429Z,7.43
2018-06-04T18:15:32.324Z,4.20
2018-06-04T18:18:01.338Z,4.80
2018-06-04T18:20:33.041Z,5.03
2018-06-04T18:23:03.784Z,6.03
2018-06-04T18:25:35.240Z,6.37
2018-06-04T18:28:06.739Z,6.30
2018-06-04T18:30:37.412Z,7.50
2018-06-04T18:33:07.791Z,7.90
2018-06-04T18:35:39.043Z,7.23
2018-06-04T18:38:09.480Z,8.20
2018-06-04T18:40:40.568Z,9.67
2018-06-04T18:43:12.227Z,9.07
2018-06-04T18:45:44.183Z,9.67
2018-06-04T18:48:13.216Z,10.40
2018-06-04T18:50:42.185Z,15.73
2018-06-04T18:53:11.136Z,15.33
2018-06-04T18:55:40.124Z,15.80
2018-06-04T18:58:09.077Z,14.47
2018-06-04T19:00:38.065Z,14.30
2018-06-04T19:03:07.251Z,12.47
2018-06-04T19:05:37.008Z,13.40
2018-06-04T19:08:06.031Z,13.70
2018-06-04T19:10:35.085Z,12.33
2018-06-04T19:13:04.218Z,11.77
2018-06-04T19:15:33.280Z,11.40
2018-06-04T19:18:02.212Z,12.93
2018-06-04T19:20:31.182Z,9.87
2018-06-04T19:23:00.182Z,10.13
2018-06-04T19:25:29.504Z,8.37
2018-06-04T19:28:02.125Z,7.60
2018-06-04T19:30:33.705Z,6.93
2018-06-04T19:33:02.805Z,7.60
2018-06-04T19:35:32.693Z,7.03
2018-06-04T19:38:01.731Z,7.37
2018-06-04T19:40:30.857Z,7.70
2018-06-04T19:42:59.867Z,7.93
2018-06-04T19:45:28.829Z,7.90
2018-06-04T19:47:58.808Z,7.40
2018-06-04T19:50:27.813Z,7.20
2018-06-04T19:52:56.809Z,7.90
2018-06-04T19:55:25.961Z,6.93
2018-06-04T19:57:54.931Z,5.73
2018-06-04T20:00:24.479Z,6.30
2018-06-04T20:02:53.425Z,8.70
2018-06-04T20:05:22.391Z,7.23
2018-06-04T20:07:51.359Z,6.80
2018-06-04T20:10:20.414Z,7.70
2018-06-04T20:12:50.026Z,6.50
2018-06-04T20:15:18.964Z,5.10
2018-06-04T20:17:47.993Z,5.85
2018-06-04T20:20:16.973Z,5.87
2018-06-04T20:22:45.879Z,6.13
2018-06-04T20:25:15.263Z,6.67
2018-06-04T20:27:44.221Z,5.50
2018-06-04T20:30:13.810Z,5.83
2018-06-04T20:32:42.840Z,5.70
2018-06-04T20:35:14.875Z,5.83
2018-06-04T20:37:43.827Z,4.70
2018-06-04T20:40:12.792Z,4.90
2018-06-04T20:42:41.726Z,4.60
2018-06-04T20:45:10.840Z,4.70
2018-06-04T20:47:40.091Z,4.93
2018-06-04T20:50:09.101Z,4.47
2018-06-04T20:52:38.159Z,4.53
2018-06-04T20:55:07.139Z,4.70
2018-06-04T20:57:36.109Z,4.57
2018-06-04T21:00:06.441Z,4.57
2018-06-04T21:02:35.449Z,4.23
2018-06-04T21:05:04.383Z,4.40
2018-06-04T21:07:33.367Z,4.13
2018-06-04T21:10:03.259Z,4.30
2018-06-04T21:12:33.162Z,4.23
2018-06-04T21:15:02.113Z,4.60
2018-06-04T21:17:31.026Z,4.70
2018-06-04T21:20:00.126Z,5.00
2018-06-04T21:22:29.079Z,4.70
2018-06-04T21:24:58.081Z,4.73
2018-06-04T21:27:27.690Z,5.00
2018-06-04T21:29:56.690Z,5.03
2018-06-04T21:32:25.640Z,4.70
2018-06-04T21:34:54.602Z,5.20
2018-06-04T21:37:23.585Z,5.10
2018-06-04T21:39:52.496Z,4.87
2018-06-04T21:42:21.473Z,4.87
2018-06-04T21:44:50.412Z,4.70
2018-06-04T21:47:19.335Z,4.73
2018-06-04T21:49:48.292Z,4.37
2018-06-04T21:52:17.704Z,4.27
2018-06-04T21:54:46.608Z,4.17
2018-06-04T21:57:15.762Z,3.97
2018-06-04T21:59:44.688Z,4.30
2018-06-04T22:02:14.298Z,4.00
2018-06-04T22:04:43.276Z,4.47
2018-06-04T22:07:12.446Z,4.60
2018-06-04T22:09:41.369Z,5.10
2018-06-04T22:12:10.311Z,5.10
2018-06-04T22:14:39.796Z,4.83
2018-06-04T22:17:08.883Z,4.90
2018-06-04T22:19:37.838Z,5.50
2018-06-04T22:22:06.828Z,5.00
2018-06-04T22:24:35.758Z,5.43
2018-06-04T22:27:04.822Z,4.87
2018-06-04T22:29:34.668Z,4.67
2018-06-04T22:32:03.611Z,4.80
2018-06-04T22:34:33.643Z,4.90
2018-06-04T22:37:02.617Z,4.77
2018-06-04T22:39:31.592Z,4.77
2018-06-04T22:42:00.732Z,5.07
2018-06-04T22:44:29.619Z,4.90
2018-06-04T22:46:58.580Z,5.37
2018-06-04T22:49:27.561Z,5.30
2018-06-04T22:51:56.499Z,4.90
2018-06-04T22:54:25.677Z,5.47
2018-06-04T22:56:54.671Z,5.10
2018-06-04T22:59:23.567Z,5.40
2018-06-04T23:01:52.478Z,5.30
2018-06-04T23:04:21.428Z,5.50
2018-06-04T23:06:50.340Z,5.30
2018-06-04T23:09:19.940Z,5.90
2018-06-04T23:11:49.927Z,5.70
2018-06-04T23:14:18.857Z,5.50
2018-06-04T23:16:48.519Z,6.70
2018-06-04T23:19:17.571Z,6.10
2018-06-04T23:21:47.124Z,6.20
2018-06-04T23:24:16.032Z,6.63
2018-06-04T23:26:45.259Z,7.20
2018-06-04T23:29:14.214Z,6.73
2018-06-04T23:31:43.178Z,7.77
2018-06-04T23:34:12.815Z,8.60
2018-06-04T23:36:42.732Z,9.40
2018-06-04T23:39:11.679Z,9.93
2018-06-04T23:41:40.727Z,10.63
2018-06-04T23:44:09.724Z,11.30
2018-06-04T23:46:38.659Z,11.30
2018-06-04T23:49:08.728Z,12.20
2018-06-04T23:51:37.668Z,12.60
2018-06-04T23:54:07.439Z,13.30
2018-06-04T23:56:36.593Z,11.93
2018-06-04T23:59:05.568Z,12.50
